Derby, KS (67037)

7:26 AM CDT on August 30, 2015 (GMT -0500)
Spring Ridge | | Change Station
CLOSE
Current Station
Personal Weather Station
Location: Derby, KS
Elevation: 1316 ft
Nearby Weather Stations

Elev 1316 ft 37.56 °N, 97.23 °W | Updated 3 seconds ago

Fog
Fog
61.4 °F
Feels Like 61.4 °F
N
0.0
Wind Variable Wind from NE
Gusts 1.0 mph

Today
High -- | Low -- °F
--% Chance of Precip.
Yesterday
High -- | Low -- °F
Precip. -- in
6:57 AM 8:01 PM
Full, 99% visible
Pressure 30.02 in
Visibility 0.5 miles
Clouds
Dew Point 60 °F
Humidity 96%
Rainfall 0.01 in
Snow Depth Not available.
UV Not available.
Pollen 10.60 out of 12
Air Quality Not available.
Flu Activity Not available.
SPECI KIAB 301218Z AUTO 05004KT 1/2SM R01/2000FT FG VV001 17/16 A3002 RMK AO2 $
Pressure 30.02 in
Visibility 0.5 miles
Clouds
Dew Point 60 °F
Humidity 96%
Rainfall 0.01 in
Snow Depth Not available.
UV Not available.
Pollen 10.60 out of 12
Air Quality Not available.
Flu Activity Not available.
SPECI KIAB 301218Z AUTO 05004KT 1/2SM R01/2000FT FG VV001 17/16 A3002 RMK AO2 $

10-Day Weather Forecast

×

Almanac

Astronomy

Aug. 30, 2015 Rise Set
Actual Time
Civil Twilight
Nautical Twilight
Astronomical Twilight
Moon
Length of Visible Light
Length of Day
Tomorrow will be .
, % of the Moon is Illuminated

Today's Extremes

State Highs State Lows

Community

WunderPhotos

Upload Photos

1,850,936 photos uploaded!

WunderBlogs® & News

Nearby

Air Quality

  Air Quality AQ Index Pollutant
Not available.

Snow Depth

Station Depth Elevation

Earthquake Activity

City Distance Mag. Time & Date
Minimum magnitude displayed is 2.5.

Coastal Water Temperatures

Place Temperature

Stations

Nearby Weather Stations

Station Location Temp. Windchill Dew Point Humidity Wind Precip. Elev Updated Type
                   
Dense Fog Advisory
Statement as of 7:21 AM CDT on August 30, 2015

... Dense fog advisory remains in effect until 10 am CDT this
morning...

* timing... dense fog will affect the entire area this
morning... with conditions expected to improve after 10 am.

* Impacts... visibilities of less than one quarter mile are
likely.

Precautionary/preparedness actions...

A dense fog advisory means visibilities will frequently be
reduced to less than one quarter mile. If driving... slow down.
Use your headlights and leave plenty of distance ahead of you.



Jakub